SBCY/CGB METAR and TAF weather

Enter ICAO airport designator
Station Type Date Time Source
SBCY METAR 2022/01/26 14:00 UTC NOAA

SBCY 261400Z 30008KT CAVOK 28/23 Q1013


Station Type Date Time Source
SBCY Decoded METAR 2022/01/26 14:00 UTC NOAA

Cuiaba Aeroporto , Brazil (SBCY) 15-39S 056-06W 182M
Jan 26, 2022 - 09:00 AM EST / 2022.01.26 1400 UTC
Wind: from the WNW (300 degrees) at 9 MPH (8 KT):0
Visibility: greater than 7 mile(s):0
Temperature: 82 F (28 C)
Dew Point: 73 F (23 C)
Relative Humidity: 74%
Pressure (altimeter): 29.91 in. Hg (1013 hPa)
ob: SBCY 261400Z 30008KT CAVOK 28/23 Q1013
cycle: 14

Station Type Date Time Source
SBCY TAF 2022/01/26 12:15 UTC NOAA

TAF SBCY 260910Z 2612/2712 34005KT 9999 FEW020 TX33/2619Z TN25/2710Z
BECMG 2615/2617 31007KT SCT020
BECMG 2617/2619 27010KT SCT020 FEW030TCU
TEMPO 2619/2623 24015G25KT 3000 TSRA BKN010 FEW030CB
BECMG 2701/2703 01005KT FEW020
BECMG 2709/2711 8000 RA FEW005
RMK PFV

Example: see airport list